Time;durP1;ratioP1;P1;durP2;ratioP2;P2;SDS_P1;SDS_P2;PMS_P1;PMS_P2;Temp;Humidity;BMP_temperature;BMP_pressure;BME280_temperature;BME280_humidity;BME280_pressure;Samples;Min_cycle;Max_cycle;Signal;HPM_P1;HPM_P2
2022/06/10 00:00:00;;;;;;;10.77;3.17;;;25.50;99.90;;;;;;4993946;28;20173;-50
2022/06/10 00:02:26;;;;;;;9.32;3.55;;;25.40;99.90;;;;;;4988538;28;20034;-50
2022/06/10 00:04:51;;;;;;;13.38;3.58;;;25.40;99.90;;;;;;4996136;28;20493;-50
2022/06/10 00:07:17;;;;;;;10.77;3.85;;;25.40;99.90;;;;;;4992415;28;20033;-51
2022/06/10 00:09:43;;;;;;;10.13;3.38;;;25.40;99.90;;;;;;4992247;28;20033;-51
2022/06/10 00:12:09;;;;;;;16.27;3.75;;;25.40;99.90;;;;;;5003806;28;20013;-52
2022/06/10 00:14:35;;;;;;;17.05;3.65;;;25.40;99.90;;;;;;4992357;28;20027;-51
2022/06/10 00:17:01;;;;;;;13.73;3.85;;;25.30;99.90;;;;;;4992178;28;20029;-51
2022/06/10 00:19:27;;;;;;;12.85;3.50;;;25.30;99.90;;;;;;5001581;28;20033;-51
2022/06/10 00:21:52;;;;;;;13.75;3.58;;;25.30;99.90;;;;;;4998383;28;20065;-51
2022/06/10 00:24:18;;;;;;;10.13;3.05;;;25.30;99.90;;;;;;4991992;28;20034;-51
2022/06/10 00:26:44;;;;;;;19.70;4.10;;;25.30;99.90;;;;;;4998530;28;20033;-51
2022/06/10 00:29:10;;;;;;;9.75;3.17;;;25.30;99.90;;;;;;4995635;28;20026;-53
2022/06/10 00:31:35;;;;;;;10.88;3.17;;;25.30;99.90;;;;;;4989812;28;20022;-52
2022/06/10 00:34:01;;;;;;;10.98;3.03;;;25.30;99.90;;;;;;4991862;28;20014;-51
2022/06/10 00:36:27;;;;;;;12.88;3.45;;;25.30;99.90;;;;;;4995783;28;20018;-50
2022/06/10 00:38:53;;;;;;;11.88;4.00;;;25.30;99.90;;;;;;4990989;28;20456;-52
2022/06/10 00:41:19;;;;;;;11.88;4.13;;;25.20;99.90;;;;;;4990328;28;20028;-50
2022/06/10 00:43:46;;;;;;;11.63;3.63;;;25.20;99.90;;;;;;4985611;28;20123;-50
2022/06/10 00:46:24;;;;;;;7.07;3.15;;;25.10;99.90;;;;;;4989442;28;20025;-51
2022/06/10 00:49:07;;;;;;;10.57;3.83;;;25.10;99.90;;;;;;4989665;28;20553;-51
2022/06/10 00:51:42;;;;;;;10.77;4.00;;;25.00;99.90;;;;;;4987008;28;20030;-51
2022/06/10 00:54:16;;;;;;;15.90;4.13;;;25.10;99.90;;;;;;4984675;28;20038;-51
2022/06/10 00:57:06;;;;;;;6.95;3.25;;;25.00;99.90;;;;;;4983933;28;20252;-50
2022/06/10 00:59:45;;;;;;;10.07;3.58;;;25.00;99.90;;;;;;4988947;28;20149;-52
2022/06/10 01:02:18;;;;;;;9.90;3.25;;;25.00;99.90;;;;;;4983264;28;20068;-51
2022/06/10 01:04:44;;;;;;;14.88;4.20;;;25.00;99.90;;;;;;4988994;28;20483;-52
2022/06/10 01:07:14;;;;;;;12.00;3.55;;;25.00;99.90;;;;;;4990960;28;20538;-51
2022/06/10 01:09:41;;;;;;;11.32;3.63;;;24.90;99.90;;;;;;4989521;28;20023;-52
2022/06/10 01:12:25;;;;;;;12.80;3.43;;;24.90;99.90;;;;;;4990868;28;20030;-52
2022/06/10 01:15:09;;;;;;;8.63;3.40;;;24.90;99.90;;;;;;4988692;28;20087;-52
2022/06/10 01:18:13;;;;;;;11.32;3.70;;;24.90;99.90;;;;;;4987336;28;20038;-52
2022/06/10 01:20:54;;;;;;;11.25;3.20;;;24.80;99.90;;;;;;4987422;28;20105;-52
2022/06/10 01:23:55;;;;;;;15.02;3.83;;;24.80;99.90;;;;;;4992156;28;20272;-52
2022/06/10 01:30:02;;;;;;;9.63;3.25;;;24.80;99.90;;;;;;4988474;28;20084;-53
2022/06/10 01:32:56;;;;;;;7.25;2.90;;;24.80;99.90;;;;;;4987002;28;20023;-52
2022/06/10 01:35:32;;;;;;;8.77;3.20;;;24.80;99.90;;;;;;4994251;28;20041;-53
2022/06/10 01:38:16;;;;;;;9.82;3.38;;;24.80;99.90;;;;;;4987612;28;20060;-53
2022/06/10 01:41:06;;;;;;;14.07;3.88;;;24.80;99.90;;;;;;4990466;28;20440;-52
2022/06/10 01:43:39;;;;;;;13.68;4.00;;;24.90;99.90;;;;;;4990806;28;20097;-52
2022/06/10 01:46:31;;;;;;;10.77;3.45;;;24.80;99.90;;;;;;4990627;28;20032;-53
2022/06/10 01:49:07;;;;;;;7.60;3.25;;;24.80;99.90;;;;;;4992943;28;20046;-52
2022/06/10 01:51:45;;;;;;;13.35;3.60;;;24.80;99.90;;;;;;4988411;28;20027;-52
2022/06/10 01:54:25;;;;;;;10.50;3.38;;;24.70;99.90;;;;;;4990431;28;20022;-52
2022/06/10 01:56:55;;;;;;;9.68;2.67;;;24.70;99.90;;;;;;4991037;28;20026;-50
2022/06/10 01:59:29;;;;;;;17.40;4.75;;;24.70;99.90;;;;;;4988470;28;20081;-50
2022/06/10 02:02:17;;;;;;;16.90;4.15;;;24.70;99.90;;;;;;4988803;28;20042;-50
2022/06/10 02:04:48;;;;;;;11.25;3.35;;;24.60;99.90;;;;;;5001311;28;20041;-50
2022/06/10 02:07:26;;;;;;;8.45;3.20;;;24.60;99.90;;;;;;4994067;28;21000;-51
2022/06/10 02:09:59;;;;;;;9.48;3.15;;;24.60;99.90;;;;;;4995770;28;20014;-51
2022/06/10 02:12:47;;;;;;;12.73;3.60;;;24.50;99.90;;;;;;4996533;28;20053;-50
2022/06/10 02:15:27;;;;;;;13.80;4.20;;;24.50;99.90;;;;;;4990700;28;20030;-51
2022/06/10 02:17:58;;;;;;;8.20;3.33;;;24.50;99.90;;;;;;4992687;28;20217;-52
2022/06/10 02:20:27;;;;;;;12.38;3.10;;;24.50;99.90;;;;;;4994468;28;20027;-50
2022/06/10 02:22:57;;;;;;;14.70;3.90;;;24.50;99.90;;;;;;4996270;28;20125;-50
2022/06/10 02:25:27;;;;;;;13.27;3.10;;;24.50;99.90;;;;;;4994397;28;20034;-49
2022/06/10 02:28:01;;;;;;;14.93;4.10;;;24.50;99.90;;;;;;4995596;28;20481;-50
2022/06/10 02:30:36;;;;;;;11.32;3.85;;;24.50;99.90;;;;;;4994656;28;20042;-49
2022/06/10 02:33:02;;;;;;;13.95;3.95;;;24.50;99.90;;;;;;4990731;28;20105;-52
2022/06/10 02:35:35;;;;;;;12.70;3.78;;;24.50;99.90;;;;;;4993497;28;20114;-50
2022/06/10 02:38:14;;;;;;;12.80;4.13;;;24.60;99.90;;;;;;4991690;28;20019;-53
2022/06/10 02:40:59;;;;;;;8.77;2.88;;;24.80;99.90;;;;;;4986542;28;20116;-51
2022/06/10 02:43:48;;;;;;;13.32;3.58;;;25.10;99.90;;;;;;4993411;28;20038;-52
2022/06/10 02:46:29;;;;;;;9.02;3.95;;;25.40;99.90;;;;;;4993446;28;20027;-51
2022/06/10 02:49:04;;;;;;;7.88;3.22;;;25.70;99.90;;;;;;4985140;28;20027;-49
2022/06/10 02:51:31;;;;;;;11.10;3.38;;;25.90;99.90;;;;;;4993129;28;20022;-49
2022/06/10 02:53:57;;;;;;;7.50;2.53;;;26.10;99.90;;;;;;4994390;28;20034;-52
2022/06/10 02:56:26;;;;;;;9.47;3.37;;;26.20;99.90;;;;;;4994301;28;20783;-50
2022/06/10 03:02:18;;;;;;;10.13;3.20;;;26.50;99.90;;;;;;4994119;28;20081;-49
2022/06/10 03:05:01;;;;;;;13.18;3.40;;;26.60;99.90;;;;;;4988533;28;20030;-51
2022/06/10 03:07:48;;;;;;;5.57;2.63;;;26.70;99.90;;;;;;4994433;28;20054;-50
2022/06/10 03:10:34;;;;;;;8.30;2.72;;;26.80;99.90;;;;;;4993926;28;20366;-47
2022/06/10 03:13:21;;;;;;;9.23;3.30;;;26.90;99.90;;;;;;4982806;28;20374;-49
2022/06/10 03:16:09;;;;;;;7.75;3.08;;;26.90;99.90;;;;;;4993288;28;20025;-49
2022/06/10 03:19:16;;;;;;;6.65;2.65;;;27.00;99.90;;;;;;4994142;28;20033;-49
2022/06/10 03:21:45;;;;;;;;;;;27.10;99.90;;;;;;4924595;29;20027;-50
2022/06/10 03:24:41;;;;;;;7.95;2.78;;;27.10;99.90;;;;;;4984253;28;20357;-49
2022/06/10 03:27:35;;;;;;;5.63;2.33;;;27.20;99.90;;;;;;4993875;28;20030;-49
2022/06/10 03:30:12;;;;;;;10.02;2.55;;;27.20;99.90;;;;;;4993787;28;20145;-50
2022/06/10 03:32:54;;;;;;;8.13;2.75;;;27.30;99.90;;;;;;4993619;28;20030;-49
2022/06/10 03:35:33;;;;;;;7.43;2.50;;;27.30;99.90;;;;;;4993739;28;20124;-50
2022/06/10 03:38:01;;;;;;;7.80;2.60;;;27.30;99.90;;;;;;4993595;28;20018;-50
2022/06/10 03:40:28;;;;;;;8.70;2.90;;;27.40;99.90;;;;;;4993742;28;20022;-50
2022/06/10 03:42:55;;;;;;;;;;;27.40;99.90;;;;;;4993863;28;20042;-51
2022/06/10 03:45:25;;;;;;;8.75;3.50;;;27.40;99.90;;;;;;4993428;28;19917;-49
2022/06/10 03:47:51;;;;;;;10.15;3.17;;;27.50;99.90;;;;;;4993300;28;20027;-50
2022/06/10 03:50:25;;;;;;;7.85;2.72;;;27.50;99.90;;;;;;4993594;28;20026;-52
2022/06/10 03:52:50;;;;;;;8.27;3.40;;;27.50;99.90;;;;;;4993312;28;20402;-50
2022/06/10 03:55:19;;;;;;;7.70;2.67;;;27.50;99.90;;;;;;4993404;28;20351;-50
2022/06/10 03:57:46;;;;;;;7.85;3.25;;;27.50;99.90;;;;;;4993139;28;20030;-50
2022/06/10 04:00:20;;;;;;;7.80;2.70;;;27.60;99.90;;;;;;4993461;28;20053;-50
2022/06/10 04:02:46;;;;;;;7.10;2.88;;;27.60;99.90;;;;;;4993601;28;20035;-49
2022/06/10 04:05:12;;;;;;;9.07;3.30;;;27.60;99.90;;;;;;4993277;28;20030;-50
2022/06/10 04:07:38;;;;;;;8.68;3.22;;;27.60;99.90;;;;;;4991999;28;20022;-50
2022/06/10 04:10:05;;;;;;;8.43;2.55;;;27.60;99.90;;;;;;4993098;28;20030;-49
2022/06/10 04:12:31;;;;;;;9.23;3.60;;;27.70;99.90;;;;;;4993018;28;20026;-48
2022/06/10 04:14:57;;;;;;;9.50;3.55;;;27.70;99.90;;;;;;4992951;28;20072;-48
2022/06/10 04:17:22;;;;;;;16.42;4.50;;;27.70;99.90;;;;;;4992924;28;20027;-49
2022/06/10 04:19:48;;;;;;;9.85;4.13;;;27.30;99.90;;;;;;4992838;28;20030;-49
2022/06/10 04:22:14;;;;;;;9.82;3.78;;;26.80;99.90;;;;;;4992614;28;20085;-49
2022/06/10 04:24:40;;;;;;;9.20;3.53;;;26.50;99.90;;;;;;4992828;28;20045;-50
2022/06/10 04:27:06;;;;;;;8.25;4.13;;;26.20;99.90;;;;;;4992070;28;20051;-49
2022/06/10 04:29:31;;;;;;;9.57;3.75;;;26.00;99.90;;;;;;4992461;28;20022;-49
2022/06/10 04:31:57;;;;;;;6.82;3.78;;;25.80;99.90;;;;;;4992624;28;20022;-49
2022/06/10 04:34:23;;;;;;;9.95;3.45;;;25.70;99.90;;;;;;4992423;28;20105;-50
2022/06/10 04:36:49;;;;;;;6.93;2.85;;;25.50;99.90;;;;;;4992570;28;20023;-50
2022/06/10 04:39:15;;;;;;;5.35;2.70;;;25.50;99.90;;;;;;4992352;28;20030;-51
2022/06/10 04:41:41;;;;;;;6.88;2.90;;;25.40;99.90;;;;;;4991170;28;20023;-51
2022/06/10 04:44:07;;;;;;;6.47;3.00;;;25.40;99.90;;;;;;4992368;28;20038;-50
2022/06/10 04:46:43;;;;;;;5.85;2.35;;;25.40;99.90;;;;;;4992496;28;20018;-52
2022/06/10 04:49:10;;;;;;;5.70;2.63;;;25.30;99.90;;;;;;4992380;28;20027;-51
2022/06/10 04:51:36;;;;;;;6.23;2.33;;;25.30;99.90;;;;;;4992507;28;20034;-51
2022/06/10 04:54:03;;;;;;;6.57;2.42;;;25.30;99.90;;;;;;4991121;28;20438;-50
2022/06/10 04:56:30;;;;;;;9.25;3.05;;;25.30;99.90;;;;;;4992151;28;20030;-49
2022/06/10 04:58:56;;;;;;;7.43;2.03;;;25.30;99.90;;;;;;4992082;28;20084;-51
2022/06/10 05:01:22;;;;;;;7.07;2.15;;;25.30;99.90;;;;;;4991899;28;20096;-52
2022/06/10 05:03:48;;;;;;;6.05;2.40;;;25.30;99.90;;;;;;4992027;28;20038;-51
2022/06/10 05:06:15;;;;;;;6.10;2.17;;;25.30;99.90;;;;;;4991969;28;20102;-51
2022/06/10 05:08:41;;;;;;;15.68;3.00;;;25.30;99.90;;;;;;4991954;28;20125;-49
2022/06/10 05:11:10;;;;;;;13.73;2.72;;;25.30;99.90;;;;;;4990862;28;20125;-50
2022/06/10 05:13:36;;;;;;;6.50;2.33;;;25.20;99.90;;;;;;4992230;28;20022;-50
2022/06/10 05:16:04;;;;;;;6.10;2.72;;;25.20;99.90;;;;;;4992090;28;20022;-48
2022/06/10 05:18:30;;;;;;;7.43;2.60;;;25.20;99.90;;;;;;4991948;28;20066;-51
2022/06/10 05:20:56;;;;;;;17.33;3.37;;;25.20;99.90;;;;;;4991853;28;20097;-49
2022/06/10 05:23:24;;;;;;;4.90;1.80;;;25.20;99.90;;;;;;4991756;28;20292;-49
2022/06/10 05:25:51;;;;;;;8.88;2.50;;;25.30;99.90;;;;;;4991737;28;20503;-49
2022/06/10 05:28:17;;;;;;;13.10;3.03;;;25.30;99.90;;;;;;4990615;28;20422;-48
2022/06/10 05:30:43;;;;;;;7.97;2.53;;;25.30;99.90;;;;;;4991620;28;20370;-47
2022/06/10 05:33:10;;;;;;;4.80;2.00;;;25.30;99.90;;;;;;4991840;28;20019;-47
2022/06/10 05:35:37;;;;;;;6.35;2.30;;;25.40;99.90;;;;;;4991926;28;20023;-48
2022/06/10 05:38:04;;;;;;;6.15;4.38;;;25.40;99.90;;;;;;4991623;28;20102;-47
2022/06/10 05:40:31;;;;;;;12.07;5.60;;;25.40;99.90;;;;;;4995345;28;20033;-48
2022/06/10 05:42:57;;;;;;;7.50;3.95;;;25.40;99.90;;;;;;4995562;28;20034;-49
2022/06/10 05:45:25;;;;;;;8.13;3.17;;;25.40;99.90;;;;;;4995702;28;20033;-47
2022/06/10 05:47:55;;;;;;;9.75;3.95;;;25.40;99.90;;;;;;4995461;28;20042;-47
2022/06/10 05:50:32;;;;;;;10.32;2.78;;;25.40;99.90;;;;;;4995562;28;20015;-47
2022/06/10 05:52:59;;;;;;;11.67;2.67;;;25.40;99.90;;;;;;4995385;28;20097;-47
2022/06/10 05:55:25;;;;;;;12.15;4.55;;;25.40;99.90;;;;;;4995574;28;20268;-48
2022/06/10 05:57:51;;;;;;;6.60;3.25;;;25.50;99.90;;;;;;4995547;28;20029;-49
2022/06/10 06:00:21;;;;;;;8.80;3.05;;;25.50;99.90;;;;;;4995248;28;20042;-50
2022/06/10 06:02:47;;;;;;;12.88;4.05;;;25.60;99.90;;;;;;4995326;28;20116;-48
2022/06/10 06:05:14;;;;;;;13.05;3.33;;;25.60;99.90;;;;;;4995167;28;20014;-46
2022/06/10 06:07:42;;;;;;;4.93;2.33;;;25.70;99.90;;;;;;4995449;28;20026;-46
2022/06/10 06:10:12;;;;;;;7.53;2.55;;;25.70;99.90;;;;;;4994002;28;20031;-45
2022/06/10 06:12:37;;;;;;;7.35;2.90;;;25.70;99.90;;;;;;4995362;28;20014;-45
2022/06/10 06:15:04;;;;;;;7.13;2.83;;;25.70;99.90;;;;;;4995213;28;20505;-45
2022/06/10 06:17:29;;;;;;;8.27;3.35;;;25.70;99.90;;;;;;4995074;28;20015;-45
2022/06/10 06:19:55;;;;;;;9.23;4.53;;;25.80;99.90;;;;;;4995045;28;20037;-46
2022/06/10 06:22:21;;;;;;;11.88;5.18;;;25.80;99.90;;;;;;4994781;28;20031;-45
2022/06/10 06:24:46;;;;;;;5.78;2.85;;;25.80;99.90;;;;;;4994911;28;20040;-46
2022/06/10 06:27:16;;;;;;;6.40;2.58;;;25.90;99.90;;;;;;4994789;28;20033;-46
2022/06/10 06:29:43;;;;;;;9.18;2.72;;;25.90;99.90;;;;;;4994860;28;20045;-47
2022/06/10 06:32:10;;;;;;;10.48;3.35;;;25.90;99.90;;;;;;4995203;28;20023;-46
2022/06/10 06:34:37;;;;;;;6.07;2.78;;;25.90;99.90;;;;;;4994568;28;20061;-46
2022/06/10 06:37:03;;;;;;;14.07;6.15;;;26.00;99.90;;;;;;4994733;28;20931;-46
2022/06/10 06:39:29;;;;;;;7.60;3.35;;;26.00;99.90;;;;;;4994743;28;20108;-46
2022/06/10 06:41:55;;;;;;;3.92;2.10;;;26.10;99.90;;;;;;4994612;28;20471;-47
2022/06/10 06:44:21;;;;;;;9.57;5.68;;;26.10;99.90;;;;;;4994641;28;20121;-47
2022/06/10 06:46:48;;;;;;;8.82;3.30;;;26.10;99.90;;;;;;4994660;28;20109;-46
2022/06/10 06:49:18;;;;;;;8.70;4.07;;;26.20;99.90;;;;;;4994464;28;20033;-46
2022/06/10 06:51:44;;;;;;;8.15;3.53;;;26.20;99.90;;;;;;4993275;28;20030;-47
2022/06/10 06:54:10;;;;;;;9.27;2.67;;;26.20;99.90;;;;;;4994649;28;20041;-47
2022/06/10 06:56:37;;;;;;;5.38;3.63;;;26.30;99.90;;;;;;4994218;28;20026;-47
2022/06/10 06:59:04;;;;;;;7.07;3.00;;;26.30;99.90;;;;;;4994431;28;20037;-47
2022/06/10 07:01:30;;;;;;;;;;;26.30;99.90;;;;;;4994430;28;20782;-48
2022/06/10 07:03:57;;;;;;;3.28;1.92;;;26.40;99.90;;;;;;4992857;28;19914;-47
2022/06/10 07:06:23;;;;;;;8.38;4.75;;;26.40;99.90;;;;;;4994102;28;20034;-47
2022/06/10 07:08:50;;;;;;;15.82;7.32;;;26.40;99.90;;;;;;4994125;28;20062;-46
2022/06/10 07:11:16;;;;;;;10.68;7.13;;;26.40;99.90;;;;;;4994028;28;20014;-46
2022/06/10 07:13:42;;;;;;;5.45;2.60;;;26.50;99.90;;;;;;4994183;28;20034;-46
2022/06/10 07:16:08;;;;;;;6.60;2.83;;;26.50;99.90;;;;;;4994043;28;20050;-47
2022/06/10 07:18:34;;;;;;;5.22;2.58;;;26.50;99.90;;;;;;4993876;28;20092;-47
2022/06/10 07:21:01;;;;;;;7.10;2.65;;;26.50;99.90;;;;;;4992591;28;20105;-47
2022/06/10 07:23:27;;;;;;;6.03;3.65;;;26.60;99.90;;;;;;4993825;28;20045;-47
2022/06/10 07:25:54;;;;;;;7.80;3.70;;;26.60;99.90;;;;;;4993634;28;20014;-48
2022/06/10 07:28:21;;;;;;;7.65;3.28;;;26.60;99.90;;;;;;4993987;28;20033;-47
2022/06/10 07:30:47;;;;;;;6.63;3.13;;;26.70;99.90;;;;;;4993676;28;20418;-47
2022/06/10 07:33:14;;;;;;;9.25;3.75;;;26.70;99.90;;;;;;4993895;28;20267;-47
2022/06/10 07:35:40;;;;;;;6.80;3.63;;;26.70;99.90;;;;;;4992501;28;20419;-47
2022/06/10 07:38:07;;;;;;;7.13;4.07;;;26.80;99.90;;;;;;4992371;28;20022;-47
2022/06/10 07:43:31;;;;;;;7.53;2.65;;;26.80;99.90;;;;;;4981312;28;20129;-49
2022/06/10 07:45:59;;;;;;;6.35;2.38;;;26.90;99.90;;;;;;4993706;28;20029;-52
2022/06/10 07:48:26;;;;;;;6.65;2.15;;;26.90;99.90;;;;;;4993313;28;20018;-48
2022/06/10 07:50:52;;;;;;;6.82;2.40;;;26.90;99.90;;;;;;4993447;28;20029;-52
2022/06/10 07:53:18;;;;;;;7.88;2.45;;;26.90;99.90;;;;;;4993448;28;20022;-49
2022/06/10 07:55:45;;;;;;;3.85;2.13;;;27.00;99.90;;;;;;4993470;28;20030;-47
2022/06/10 07:58:13;;;;;;;6.22;2.35;;;27.00;99.90;;;;;;4992974;28;20390;-46
2022/06/10 08:00:39;;;;;;;9.70;3.90;;;27.00;99.90;;;;;;4992878;28;20117;-46
2022/06/10 08:03:05;;;;;;;11.13;7.55;;;27.00;99.90;;;;;;4992589;28;20169;-47
2022/06/10 08:05:33;;;;;;;5.32;3.13;;;27.10;99.90;;;;;;4993122;28;20046;-47
2022/06/10 08:08:01;;;;;;;5.70;2.53;;;27.10;99.90;;;;;;4993000;28;20030;-49
2022/06/10 08:10:31;;;;;;;9.65;2.53;;;27.10;99.90;;;;;;4992806;28;20030;-55
2022/06/10 08:12:57;;;;;;;5.72;2.80;;;27.20;99.90;;;;;;4992984;28;20023;-50
2022/06/10 08:15:24;;;;;;;4.90;2.42;;;27.20;99.90;;;;;;4993050;28;20030;-51
2022/06/10 08:17:51;;;;;;;8.07;3.90;;;27.30;99.90;;;;;;4992859;28;20026;-54
2022/06/10 08:23:21;;;;;;;7.90;3.10;;;27.30;99.90;;;;;;4992968;28;20042;-51
2022/06/10 08:25:47;;;;;;;;;;;27.30;99.90;;;;;;4993251;28;20081;-51
2022/06/10 08:28:13;;;;;;;5.05;2.55;;;27.40;99.90;;;;;;4992811;28;19906;-51
2022/06/10 08:30:39;;;;;;;6.93;3.10;;;27.30;99.90;;;;;;4992777;28;20022;-51
2022/06/10 08:33:05;;;;;;;8.95;2.72;;;27.30;99.90;;;;;;4991192;28;20426;-51
2022/06/10 08:35:32;;;;;;;7.57;3.80;;;27.30;99.90;;;;;;4992507;28;20038;-51
2022/06/10 08:37:59;;;;;;;9.75;3.70;;;27.40;99.90;;;;;;4992327;28;20022;-51
2022/06/10 08:40:31;;;;;;;9.45;3.35;;;27.50;99.90;;;;;;4992574;28;20137;-51
2022/06/10 08:43:07;;;;;;;5.80;2.65;;;27.50;99.90;;;;;;4992378;28;20117;-51
2022/06/10 08:45:46;;;;;;;8.07;4.10;;;27.50;99.90;;;;;;4992394;28;20057;-51
2022/06/10 08:48:33;;;;;;;9.48;4.43;;;27.50;99.90;;;;;;4992239;28;20049;-51
2022/06/10 08:51:17;;;;;;;7.85;4.40;;;27.60;99.90;;;;;;4991086;28;20057;-51
2022/06/10 08:54:36;;;;;;;12.02;3.50;;;27.60;99.90;;;;;;4980109;28;20073;-50
2022/06/10 08:57:16;;;;;;;7.18;3.13;;;27.60;99.90;;;;;;4958860;28;20037;-51
2022/06/10 08:59:48;;;;;;;6.60;2.83;;;27.70;99.90;;;;;;4992121;28;20407;-51
2022/06/10 09:02:33;;;;;;;6.35;4.00;;;27.70;99.90;;;;;;4992203;28;20517;-51
2022/06/10 09:05:21;;;;;;;9.13;6.80;;;27.70;99.90;;;;;;4991989;28;20038;-53
2022/06/10 09:08:14;;;;;;;7.95;2.90;;;27.70;99.90;;;;;;4992048;28;20124;-55
2022/06/10 09:10:56;;;;;;;7.47;3.47;;;27.70;99.90;;;;;;4979218;28;20031;-52
2022/06/10 09:13:39;;;;;;;19.77;6.47;;;27.80;99.90;;;;;;4991712;28;20475;-52
2022/06/10 09:16:29;;;;;;;13.43;7.25;;;27.70;99.90;;;;;;4991619;28;20479;-51
2022/06/10 09:19:12;;;;;;;4.78;3.05;;;27.70;99.90;;;;;;4991911;28;20038;-51
2022/06/10 09:22:09;;;;;;;6.95;2.90;;;27.80;99.90;;;;;;4991811;28;20157;-51
2022/06/10 09:24:50;;;;;;;7.60;2.80;;;27.80;99.90;;;;;;4991645;28;20030;-51
2022/06/10 09:27:33;;;;;;;6.18;3.30;;;27.80;99.90;;;;;;4991808;28;20537;-51
2022/06/10 09:30:03;;;;;;;11.70;6.15;;;27.80;99.90;;;;;;4980171;28;20026;-51
2022/06/10 09:32:50;;;;;;;11.65;4.60;;;27.90;99.90;;;;;;4991501;28;20169;-51
2022/06/10 09:35:37;;;;;;;5.28;2.85;;;27.90;99.90;;;;;;4991725;28;20023;-51
2022/06/10 09:38:28;;;;;;;5.28;2.97;;;27.90;99.90;;;;;;4991460;28;20018;-51
2022/06/10 09:41:15;;;;;;;8.30;3.03;;;28.00;99.90;;;;;;4991941;28;20030;-51
2022/06/10 09:43:49;;;;;;;6.03;2.67;;;28.00;99.90;;;;;;4980724;28;20034;-51
2022/06/10 09:47:00;;;;;;;7.00;3.05;;;27.90;99.90;;;;;;4991430;28;20494;-54
2022/06/10 09:49:44;;;;;;;5.57;2.15;;;28.00;99.90;;;;;;4953260;28;20034;-54
2022/06/10 09:52:34;;;;;;;9.40;3.40;;;27.90;99.90;;;;;;4991334;28;20479;-55
2022/06/10 09:55:42;;;;;;;5.80;2.80;;;27.90;99.90;;;;;;4991146;28;20027;-54
2022/06/10 09:58:26;;;;;;;6.95;3.20;;;27.90;99.90;;;;;;4991212;28;20018;-52
2022/06/10 10:01:22;;;;;;;9.55;3.25;;;28.00;99.90;;;;;;4991587;28;20066;-47
2022/06/10 10:04:20;;;;;;;7.32;4.15;;;28.00;99.90;;;;;;4978211;28;20039;-48
2022/06/10 10:06:54;;;;;;;13.15;4.40;;;28.00;99.90;;;;;;4966685;28;20037;-48
2022/06/10 10:09:42;;;;;;;6.72;3.97;;;28.10;99.90;;;;;;4991296;28;20026;-48
2022/06/10 10:12:19;;;;;;;7.75;2.95;;;28.10;99.90;;;;;;4990892;28;20044;-49
2022/06/10 10:14:57;;;;;;;6.18;2.60;;;28.10;99.90;;;;;;4981417;28;20504;-52
2022/06/10 10:17:34;;;;;;;9.43;3.28;;;28.10;99.90;;;;;;4985233;28;20145;-49
2022/06/10 10:20:36;;;;;;;5.10;2.88;;;28.10;99.90;;;;;;4987671;28;20031;-50
2022/06/10 10:23:25;;;;;;;7.28;2.22;;;28.10;99.90;;;;;;4977235;28;20084;-51
2022/06/10 10:25:51;;;;;;;5.63;2.60;;;28.10;99.90;;;;;;4993221;28;20566;-51
2022/06/10 10:28:28;;;;;;;5.63;3.03;;;28.10;99.90;;;;;;4994804;28;20101;-50
2022/06/10 10:31:32;;;;;;;;;;;28.10;99.90;;;;;;4995108;28;20084;-50
2022/06/10 10:34:01;;;;;;;5.93;2.35;;;28.20;99.90;;;;;;4934511;29;19907;-53
2022/06/10 10:36:27;;;;;;;6.40;1.85;;;28.20;99.90;;;;;;4934403;29;20032;-52
2022/06/10 10:38:53;;;;;;;5.45;1.70;;;28.30;99.90;;;;;;4957631;28;20049;-50
2022/06/10 10:41:26;;;;;;;10.98;2.75;;;28.30;99.90;;;;;;4985883;28;20061;-51
2022/06/10 10:44:16;;;;;;;6.20;2.40;;;28.40;99.90;;;;;;4991976;28;20118;-51
2022/06/10 10:47:08;;;;;;;6.00;1.73;;;28.40;99.90;;;;;;4979499;28;20081;-51
2022/06/10 10:49:38;;;;;;;6.25;1.70;;;28.30;99.90;;;;;;4980865;28;20427;-45
2022/06/10 10:52:26;;;;;;;3.55;1.70;;;28.30;99.90;;;;;;4979833;28;20119;-45
2022/06/10 10:54:55;;;;;;;11.05;3.90;;;28.40;99.90;;;;;;4983212;28;20038;-49
2022/06/10 10:57:21;;;;;;;3.40;1.75;;;28.40;99.90;;;;;;4993413;28;20030;-52
2022/06/10 10:59:58;;;;;;;7.82;3.05;;;28.30;99.90;;;;;;4993551;28;20053;-53
2022/06/10 11:02:31;;;;;;;3.75;2.00;;;28.30;99.90;;;;;;4987463;28;20030;-50
2022/06/10 11:05:24;;;;;;;9.68;2.17;;;28.00;99.90;;;;;;4986130;28;20022;-49
2022/06/10 11:08:34;;;;;;;3.83;1.65;;;28.10;99.90;;;;;;4988231;28;20114;-51
2022/06/10 11:11:06;;;;;;;9.80;1.88;;;28.10;99.90;;;;;;4969319;28;20479;-51
2022/06/10 11:13:56;;;;;;;4.22;2.13;;;28.00;99.90;;;;;;4991800;28;20082;-48
2022/06/10 11:16:27;;;;;;;6.28;1.55;;;28.00;99.90;;;;;;4991126;28;20030;-50
2022/06/10 11:19:01;;;;;;;7.60;3.70;;;28.00;99.90;;;;;;4992221;28;20029;-50
2022/06/10 11:21:29;;;;;;;7.80;2.13;;;28.00;99.90;;;;;;4987576;28;20054;-51
2022/06/10 11:23:57;;;;;;;6.45;2.13;;;28.00;99.90;;;;;;4983039;28;20039;-50
2022/06/10 11:26:26;;;;;;;5.70;2.33;;;28.10;99.90;;;;;;4988105;28;20019;-50
2022/06/10 11:29:07;;;;;;;5.05;2.20;;;28.10;99.90;;;;;;4987648;28;20026;-51
2022/06/10 11:31:50;;;;;;;5.43;2.78;;;28.20;99.90;;;;;;4982841;28;20029;-51
2022/06/10 11:34:34;;;;;;;3.63;2.20;;;28.30;99.90;;;;;;4991619;28;20105;-49
2022/06/10 11:37:00;;;;;;;4.75;2.95;;;28.40;99.90;;;;;;4987605;28;20026;-50
2022/06/10 11:39:33;;;;;;;5.60;2.60;;;28.40;99.90;;;;;;4984732;28;20102;-52
2022/06/10 11:42:08;;;;;;;4.32;2.17;;;28.50;99.90;;;;;;4989476;28;20030;-50
2022/06/10 11:44:48;;;;;;;5.18;1.77;;;28.60;99.90;;;;;;4989498;28;20445;-50
2022/06/10 11:47:59;;;;;;;4.88;1.90;;;28.70;99.90;;;;;;4992573;28;20030;-52
2022/06/10 11:50:33;;;;;;;6.15;1.70;;;28.60;99.90;;;;;;4983855;28;20390;-51
2022/06/10 11:53:01;;;;;;;6.45;1.88;;;28.60;99.90;;;;;;4992984;28;20030;-52
2022/06/10 11:55:30;;;;;;;4.10;1.55;;;28.70;99.90;;;;;;4988646;28;20383;-51
2022/06/10 12:00:55;;;;;;;5.82;1.98;;;28.60;99.90;;;;;;4990035;28;20060;-53
2022/06/10 12:03:40;;;;;;;4.60;1.50;;;28.70;99.90;;;;;;4988875;28;20066;-54
2022/06/10 12:06:24;;;;;;;4.68;1.92;;;28.70;99.90;;;;;;4989230;28;20035;-54
2022/06/10 12:09:17;;;;;;;8.70;2.10;;;28.80;99.90;;;;;;4978118;28;20526;-53
2022/06/10 12:11:51;;;;;;;7.30;2.10;;;28.60;99.90;;;;;;4978454;28;20443;-54
2022/06/10 12:14:46;;;;;;;5.75;1.77;;;28.70;99.90;;;;;;4987007;28;20471;-53
2022/06/10 12:17:33;;;;;;;4.63;1.52;;;28.60;99.90;;;;;;4974025;28;20337;-53
2022/06/10 12:20:21;;;;;;;5.68;1.83;;;28.60;99.90;;;;;;4992803;28;20037;-54
2022/06/10 12:22:47;;;;;;;5.78;1.60;;;28.70;99.90;;;;;;4992435;28;20073;-54
2022/06/10 12:25:18;;;;;;;8.43;2.63;;;28.70;99.90;;;;;;4992629;28;20474;-53
2022/06/10 12:28:03;;;;;;;5.18;1.70;;;28.70;99.90;;;;;;4992508;28;20023;-53
2022/06/10 12:30:45;;;;;;;5.15;2.00;;;28.70;99.90;;;;;;4992542;28;20045;-53
2022/06/10 12:33:36;;;;;;;4.38;1.63;;;28.70;99.90;;;;;;4992637;28;20080;-53
2022/06/10 12:36:05;;;;;;;3.00;1.70;;;28.50;99.90;;;;;;4992529;28;20034;-53
2022/06/10 12:38:37;;;;;;;6.97;2.08;;;28.40;99.90;;;;;;4991274;28;20026;-53
2022/06/10 12:41:18;;;;;;;5.18;2.47;;;28.40;99.90;;;;;;4977939;28;20084;-53
2022/06/10 12:43:49;;;;;;;5.35;2.63;;;28.50;99.90;;;;;;4992391;28;20030;-53
2022/06/10 12:46:46;;;;;;;6.65;1.83;;;28.60;99.90;;;;;;4992510;28;20073;-53
2022/06/10 12:49:42;;;;;;;8.52;3.15;;;28.60;99.90;;;;;;4991504;28;20386;-53
2022/06/10 12:52:20;;;;;;;4.37;2.67;;;28.70;99.90;;;;;;4992360;28;20026;-53
2022/06/10 12:55:14;;;;;;;7.22;1.98;;;28.80;99.90;;;;;;4992086;28;20034;-52
2022/06/10 12:57:43;;;;;;;4.63;2.75;;;28.70;99.90;;;;;;4981511;28;20042;-53
2022/06/10 13:00:17;;;;;;;4.13;2.00;;;28.70;99.90;;;;;;4992117;28;20049;-53
2022/06/10 13:02:44;;;;;;;3.72;1.85;;;28.80;99.90;;;;;;4991825;28;20037;-53
2022/06/10 13:05:36;;;;;;;4.72;1.70;;;28.80;99.90;;;;;;4992186;28;20061;-54
2022/06/10 13:08:02;;;;;;;4.00;2.30;;;28.50;99.90;;;;;;4988880;28;20486;-53
2022/06/10 13:10:34;;;;;;;4.25;2.08;;;28.50;99.90;;;;;;4992080;28;20031;-53
2022/06/10 13:13:23;;;;;;;5.45;2.08;;;28.60;99.90;;;;;;4991384;28;20031;-53
2022/06/10 13:16:16;;;;;;;5.43;1.90;;;28.40;99.90;;;;;;4990171;28;20054;-54
2022/06/10 13:18:58;;;;;;;4.60;1.73;;;28.40;99.90;;;;;;4991977;28;20109;-53
2022/06/10 13:21:32;;;;;;;5.53;2.40;;;28.40;99.90;;;;;;4992017;28;20050;-53
2022/06/10 13:23:58;;;;;;;3.67;2.00;;;28.40;99.90;;;;;;4991991;28;20669;-53
2022/06/10 13:26:25;;;;;;;4.45;1.70;;;28.50;99.90;;;;;;4991980;28;20110;-53
2022/06/10 13:28:51;;;;;;;4.57;1.90;;;28.60;99.90;;;;;;4990664;28;20034;-53
2022/06/10 13:31:24;;;;;;;6.75;2.28;;;28.60;99.90;;;;;;4991827;28;20373;-53
2022/06/10 13:34:04;;;;;;;5.28;1.50;;;28.70;99.90;;;;;;4991893;28;20080;-53
2022/06/10 13:36:43;;;;;;;7.88;2.10;;;28.60;99.90;;;;;;4991890;28;20031;-53